Wrangell, AK

2:59 AM AKDT on March 29, 2015 (GMT -0800)
Wrangell | | Change Station
CLOSE
Current Station
Airport
Location: Wrangell,
Elevation: 43 ft
Nearby Weather Stations

Elev 43 ft 56.48 °N, 132.37 °W | Updated 3 minutes ago

Overcast
Overcast
43 °F
Feels Like 40 °F
N
5
Wind Variable Wind from SE

Today
High -- | Low -- °F
--% Chance of Precip.
Yesterday
High -- | Low -- °F
Precip. -- in
6:27 AM 7:22 PM
Waxing Gibbous, 70% visible
Pressure 29.74 in
Visibility 10.0 miles
Clouds Overcast 3700 ft
Windchill 40 °F
Dew Point 39 °F
Humidity 87%
Rainfall 0.08 in
Snow Depth Not available.
UV 0 out of 12
Pollen Not available.
Air Quality Not available.
Flu Activity Not available.
METAR PAWG 291056Z AUTO 13004KT 10SM OVC037 06/04 A2974 RMK AO1 P0003

More Conditions Fewer Conditions

Pressure 29.74 in
Visibility 10.0 miles
Clouds Overcast 3700 ft
Windchill 40 °F
Dew Point 39 °F
Humidity 87%
Rainfall 0.08 in
Snow Depth Not available.
UV 0 out of 12
Pollen Not available.
Air Quality Not available.
Flu Activity Not available.
METAR PAWG 291056Z AUTO 13004KT 10SM OVC037 06/04 A2974 RMK AO1 P0003

More Conditions Fewer Conditions

10-Day Weather Forecast

Almanac

Astronomy

Mar. 29, 2015 Rise Set
Actual Time
Civil Twilight
Nautical Twilight
Astronomical Twilight
Moon
Length of Visible Light
Length of Day
Tomorrow will be .
, % of the Moon is Illuminated

Today's Extremes

State Highs State Lows

Community

WunderPhotos

Upload Photos

1,809,214 photos uploaded!

WunderBlogs® & News

Nearby

Air Quality

  Air Quality AQ Index Pollutant
Not available.

Snow Depth

Station Depth Elevation

Earthquake Activity

City Distance Mag. Time & Date
Minimum magnitude displayed is 2.5.

Coastal Water Temperatures

Place Temperature

Stations

Nearby Weather Stations

Station Location Temp. Windchill Dew Point Humidity Wind Precip. Elev Updated Type